Time;durP1;ratioP1;P1;durP2;ratioP2;P2;SDS_P1;SDS_P2;PMS_P1;PMS_P2;Temp;Humidity;BMP_temperature;BMP_pressure;BME280_temperature;BME280_humidity;BME280_pressure;Samples;Min_cycle;Max_cycle;Signal;HPM_P1;HPM_P2
2021/10/01 00:03:24;;;;;;;36.07;33.47;;;;;;;16.20;100.00;101331.16;1941127;74;31068;-73
2021/10/01 00:08:49;;;;;;;37.97;35.27;;;;;;;16.24;100.00;101326.59;1941119;74;32994;-73
2021/10/01 00:14:13;;;;;;;39.50;36.60;;;;;;;16.24;100.00;101317.62;1941318;74;31603;-72
2021/10/01 00:19:38;;;;;;;37.33;34.73;;;;;;;16.27;100.00;101307.17;1941340;74;32950;-74
2021/10/01 00:25:03;;;;;;;36.63;33.87;;;;;;;16.25;100.00;101307.23;1941250;74;31570;-73
2021/10/01 00:30:28;;;;;;;39.37;36.43;;;;;;;16.30;100.00;101294.52;1941114;74;31119;-73
2021/10/01 00:35:52;;;;;;;37.93;35.23;;;;;;;16.31;100.00;101289.16;1941233;74;33430;-72
2021/10/01 00:41:17;;;;;;;36.00;33.33;;;;;;;16.32;100.00;101286.05;1941256;74;31076;-73
2021/10/01 00:46:42;;;;;;;36.63;33.97;;;;;;;16.33;100.00;101268.66;1941163;74;31017;-72
2021/10/01 00:52:09;;;;;;;37.97;35.27;;;;;;;16.32;100.00;101258.01;1941173;74;31067;-73
2021/10/01 00:57:33;;;;;;;36.53;33.83;;;;;;;16.42;100.00;101251.35;1941189;74;31009;-73
2021/10/01 01:03:00;;;;;;;35.60;33.00;;;;;;;16.40;100.00;101240.44;1941122;74;31079;-71
2021/10/01 01:08:32;;;;;;;37.07;34.33;;;;;;;16.41;100.00;101237.07;1941160;74;33038;-74
2021/10/01 01:14:08;;;;;;;37.40;34.60;;;;;;;16.45;100.00;101242.30;1941262;74;31082;-72
2021/10/01 01:19:40;;;;;;;35.07;32.47;;;;;;;16.45;100.00;101232.48;1941120;74;31026;-72
2021/10/01 01:22:15;;;;;;;36.97;34.20;;;;;;;16.45;100.00;101233.06;1903138;75;24648;-73
2021/10/01 01:28:03;;;;;;;37.30;34.70;;;;;;;16.44;100.00;101219.61;1941366;74;31538;-74
2021/10/01 01:30:36;;;;;;;38.30;35.60;;;;;;;16.45;100.00;101223.24;1905492;75;24216;-73
2021/10/01 01:36:03;;;;;;;35.33;32.73;;;;;;;16.49;100.00;101213.05;1941166;74;31141;-72
2021/10/01 01:41:31;;;;;;;38.13;35.33;;;;;;;16.52;100.00;101197.82;1941390;74;31621;-73
2021/10/01 01:46:58;;;;;;;37.60;34.90;;;;;;;16.53;100.00;101181.25;1941129;74;31025;-73
2021/10/01 01:52:24;;;;;;;36.27;33.47;;;;;;;16.54;100.00;101166.66;1941131;74;31006;-72
2021/10/01 01:57:52;;;;;;;39.13;36.10;;;;;;;16.59;100.00;101166.58;1941168;74;31014;-73
2021/10/01 02:03:18;;;;;;;38.47;35.77;;;;;;;16.59;100.00;101163.77;1941046;74;31123;-72
2021/10/01 02:08:45;;;;;;;37.83;35.23;;;;;;;16.60;100.00;101155.63;1941236;74;31569;-73
2021/10/01 02:14:11;;;;;;;36.57;33.97;;;;;;;16.64;100.00;101142.62;1941252;74;31065;-74
2021/10/01 02:19:48;;;;;;;36.40;33.67;;;;;;;16.66;100.00;101136.09;1941018;74;31017;-73
2021/10/01 02:31:03;;;;;;;38.97;36.17;;;;;;;16.70;100.00;101107.09;1941250;74;31602;-73
2021/10/01 02:36:30;;;;;;;37.10;34.30;;;;;;;16.70;100.00;101094.47;1941239;74;31493;-72
2021/10/01 02:41:55;;;;;;;37.23;34.40;;;;;;;16.71;100.00;101086.88;1941033;74;31100;-74
2021/10/01 02:47:20;;;;;;;37.77;34.87;;;;;;;16.71;100.00;101070.05;1941184;74;31140;-72
2021/10/01 02:52:49;;;;;;;38.77;35.83;;;;;;;16.75;100.00;101052.27;1940966;74;31010;-73
2021/10/01 02:55:21;;;;;;;37.20;34.50;;;;;;;16.72;100.00;101062.73;1904964;75;26206;-74
2021/10/01 03:00:50;;;;;;;40.53;37.37;;;;;;;16.76;100.00;101048.88;1941263;74;31186;-74
2021/10/01 03:06:20;;;;;;;36.23;33.43;;;;;;;16.79;100.00;101034.20;1941203;74;31538;-73
2021/10/01 03:11:53;;;;;;;39.07;35.87;;;;;;;16.78;100.00;101028.33;1940983;74;31076;-73
2021/10/01 03:17:18;;;;;;;39.57;36.53;;;;;;;16.85;100.00;101025.91;1940899;74;31095;-73
2021/10/01 03:22:45;;;;;;;40.20;37.20;;;;;;;16.89;100.00;101014.87;1941147;74;32984;-74
2021/10/01 03:28:11;;;;;;;40.43;37.17;;;;;;;16.88;100.00;101017.41;1940994;74;32971;-74
2021/10/01 03:33:36;;;;;;;39.37;36.30;;;;;;;16.88;100.00;101011.23;1941200;74;33496;-73
2021/10/01 03:39:01;;;;;;;38.37;35.43;;;;;;;16.90;100.00;100996.28;1941224;74;31098;-73
2021/10/01 03:44:26;;;;;;;39.33;36.23;;;;;;;16.91;100.00;100995.14;1941008;74;33026;-74
2021/10/01 03:49:51;;;;;;;39.50;36.20;;;;;;;16.93;100.00;100993.42;1941221;74;33469;-74
2021/10/01 03:55:20;;;;;;;41.37;38.27;;;;;;;16.88;100.00;100971.12;1941028;74;31045;-72
2021/10/01 04:00:45;;;;;;;40.43;37.20;;;;;;;16.85;100.00;100975.41;1921675;74;39862;-74
2021/10/01 04:06:10;;;;;;;41.93;38.80;;;;;;;16.91;100.00;100984.48;1941034;74;31123;-72
2021/10/01 04:11:37;;;;;;;41.47;38.20;;;;;;;16.91;100.00;100968.48;1941021;74;32990;-73
2021/10/01 04:17:01;;;;;;;42.83;39.40;;;;;;;16.83;100.00;100964.50;1941054;74;31113;-74
2021/10/01 04:22:25;;;;;;;43.67;40.03;;;;;;;16.81;100.00;100958.38;1941228;74;31112;-73
2021/10/01 04:28:12;;;;;;;44.07;40.67;;;;;;;16.78;100.00;100945.00;2009855;71;32891;-73
2021/10/01 04:33:40;;;;;;;42.37;39.10;;;;;;;16.75;100.00;100938.65;1941083;74;31063;-73
2021/10/01 04:39:04;;;;;;;45.30;41.43;;;;;;;16.78;100.00;100937.16;1941280;74;31727;-74
2021/10/01 04:44:28;;;;;;;44.80;41.47;;;;;;;16.78;100.00;100938.56;1941003;74;33061;-74
2021/10/01 04:49:52;;;;;;;46.90;43.20;;;;;;;16.78;100.00;100926.77;1941010;74;33031;-73
2021/10/01 04:55:16;;;;;;;44.53;41.07;;;;;;;16.88;100.00;100919.20;1941277;74;33053;-72
2021/10/01 05:00:42;;;;;;;43.30;39.93;;;;;;;16.92;100.00;100917.41;1941054;74;31104;-73
2021/10/01 05:06:06;;;;;;;44.73;41.47;;;;;;;16.90;100.00;100920.52;1941086;74;31053;-73
2021/10/01 05:11:30;;;;;;;45.33;41.87;;;;;;;16.93;100.00;100935.33;1941280;74;31604;-74
2021/10/01 05:16:55;;;;;;;44.23;40.73;;;;;;;16.97;100.00;100930.72;1941260;74;33022;-72
2021/10/01 05:22:19;;;;;;;43.47;39.93;;;;;;;16.92;100.00;100918.23;1941022;74;33098;-74
2021/10/01 05:27:50;;;;;;;46.63;43.00;;;;;;;16.92;100.00;100914.02;1941279;74;31684;-71
2021/10/01 05:33:15;;;;;;;49.08;45.08;;;;;;;16.96;100.00;100908.01;1925068;74;28218;-73
2021/10/01 05:38:41;;;;;;;48.97;45.13;;;;;;;16.88;100.00;100915.00;1941033;74;31151;-72
2021/10/01 05:44:06;;;;;;;47.37;43.37;;;;;;;16.78;100.00;100915.55;1941294;74;31522;-72
2021/10/01 05:49:37;;;;;;;41.73;38.43;;;;;;;16.71;100.00;100913.80;1941288;74;31578;-73
2021/10/01 05:54:58;;;;;;;41.00;37.53;;;;;;;16.65;100.00;100900.23;1941264;74;31607;-74
2021/10/01 06:00:23;;;;;;;40.20;37.17;;;;;;;16.61;100.00;100907.64;1941052;74;31097;-72
2021/10/01 06:05:47;;;;;;;39.67;36.77;;;;;;;16.58;100.00;100900.72;1941114;74;31045;-71
2021/10/01 06:11:12;;;;;;;41.63;38.43;;;;;;;16.27;100.00;100899.88;1941295;74;31601;-72
2021/10/01 06:16:36;;;;;;;45.03;41.70;;;;;;;16.22;100.00;100900.84;1941005;74;32996;-71
2021/10/01 06:22:00;;;;;;;49.50;45.90;;;;;;;16.18;100.00;100922.83;1941221;74;31161;-72
2021/10/01 06:27:25;;;;;;;44.67;41.27;;;;;;;16.11;100.00;100918.27;1941279;74;31112;-71
2021/10/01 06:32:50;;;;;;;48.20;44.47;;;;;;;15.74;100.00;100922.30;1941226;74;31061;-73
2021/10/01 06:38:14;;;;;;;46.83;43.30;;;;;;;15.64;100.00;100917.77;1941231;74;31224;-73
2021/10/01 06:43:38;;;;;;;48.03;44.23;;;;;;;15.54;100.00;100915.21;1941025;74;32989;-73
2021/10/01 06:49:17;;;;;;;51.33;47.27;;;;;;;15.31;100.00;100940.93;1941014;74;33030;-73
2021/10/01 07:23:32;;;;;;;49.73;46.07;;;;;;;14.72;100.00;100950.89;1941157;74;33512;-72
2021/10/01 07:34:55;;;;;;;51.63;48.03;;;;;;;14.70;100.00;100923.80;1941288;74;33534;-74
2021/10/01 08:20:12;;;;;;;49.97;46.27;;;;;;;14.90;100.00;100926.99;1940990;74;33109;-71
2021/10/01 08:25:38;;;;;;;47.67;44.37;;;;;;;14.85;100.00;100956.47;1941027;74;33114;-71
2021/10/01 08:31:03;;;;;;;47.47;44.00;;;;;;;14.86;100.00;100967.92;1941250;74;33503;-71
2021/10/01 08:36:28;;;;;;;47.93;44.57;;;;;;;14.86;100.00;100953.93;1941062;74;32982;-71
2021/10/01 08:41:53;;;;;;;47.27;43.90;;;;;;;14.91;100.00;100963.62;1941248;74;33490;-76
2021/10/01 08:47:20;;;;;;;48.53;45.33;;;;;;;14.99;100.00;100990.03;1941085;74;33059;-71
2021/10/01 08:52:47;;;;;;;48.27;44.97;;;;;;;15.00;100.00;101009.87;1941022;74;32988;-76
2021/10/01 08:58:11;;;;;;;48.17;44.77;;;;;;;15.01;100.00;101007.34;1941007;74;33058;-76
2021/10/01 09:03:35;;;;;;;48.13;44.30;;;;;;;15.12;100.00;101014.38;1941070;74;33104;-75
2021/10/01 09:09:04;;;;;;;48.83;45.17;;;;;;;15.24;100.00;101016.07;1941016;74;33002;-69
2021/10/01 09:14:30;;;;;;;45.20;41.50;;;;;;;15.45;100.00;101003.86;1941016;74;32994;-71
2021/10/01 09:20:01;;;;;;;46.17;42.77;;;;;;;15.60;100.00;101002.16;1941246;74;33503;-74
2021/10/01 09:25:27;;;;;;;48.10;44.27;;;;;;;15.68;100.00;101002.81;1941041;74;32981;-72
2021/10/01 09:30:57;;;;;;;46.57;42.97;;;;;;;15.80;100.00;100998.88;1941219;74;33469;-72
2021/10/01 09:36:22;;;;;;;45.53;41.90;;;;;;;15.94;100.00;100989.85;1941040;74;33090;-71
2021/10/01 09:41:46;;;;;;;46.37;42.17;;;;;;;16.11;100.00;100987.75;1941047;74;31177;-71
2021/10/01 09:47:11;;;;;;;45.60;41.83;;;;;;;16.28;100.00;100992.07;1941294;74;31647;-71
2021/10/01 09:52:45;;;;;;;46.00;42.33;;;;;;;16.56;100.00;100990.52;1941301;74;31540;-75
2021/10/01 09:58:13;;;;;;;44.43;40.80;;;;;;;16.49;100.00;100994.33;1941222;74;31604;-75
2021/10/01 10:03:39;;;;;;;48.33;44.07;;;;;;;16.57;100.00;100991.60;1941304;74;33541;-75
2021/10/01 10:09:05;;;;;;;45.37;41.67;;;;;;;16.65;100.00;100990.81;1941301;74;31046;-75
2021/10/01 10:14:37;;;;;;;43.13;39.60;;;;;;;16.68;100.00;100984.58;1941217;74;33520;-71
2021/10/01 10:20:10;;;;;;;44.80;41.33;;;;;;;16.63;100.00;100973.50;1941261;74;33064;-71
2021/10/01 10:25:36;;;;;;;41.30;37.80;;;;;;;16.76;100.00;100985.77;1941058;74;31050;-70
2021/10/01 10:31:01;;;;;;;43.33;39.90;;;;;;;16.78;100.00;100981.47;1941133;74;33053;-73
2021/10/01 10:36:44;;;;;;;42.77;39.70;;;;;;;17.01;100.00;100974.38;1941245;74;31630;-75
2021/10/01 10:42:43;;;;;;;42.90;39.73;;;;;;;16.96;100.00;100971.14;1941220;74;33498;-72
2021/10/01 10:48:18;;;;;;;41.10;37.93;;;;;;;16.97;100.00;100972.80;1941224;74;31524;-72
2021/10/01 10:53:47;;;;;;;41.17;38.23;;;;;;;16.98;100.00;100953.42;1941281;74;31107;-73
2021/10/01 10:59:21;;;;;;;40.63;37.83;;;;;;;16.98;100.00;100937.98;1941258;74;31642;-75
2021/10/01 11:04:50;;;;;;;48.20;44.90;;;;;;;17.25;100.00;100930.68;1941260;74;31048;-75
2021/10/01 11:10:47;;;;;;;44.73;41.80;;;;;;;17.40;100.00;100925.75;1941149;74;31489;-71
2021/10/01 11:16:22;;;;;;;44.80;41.87;;;;;;;17.39;100.00;100919.30;1941036;74;31214;-75
2021/10/01 11:21:58;;;;;;;43.47;40.83;;;;;;;17.50;100.00;100914.20;1940791;74;31115;-69
2021/10/01 11:27:23;;;;;;;44.40;41.67;;;;;;;17.33;100.00;100911.38;1941014;74;31674;-71
2021/10/01 11:32:47;;;;;;;42.57;39.97;;;;;;;17.31;100.00;100932.77;1940772;74;31059;-76
2021/10/01 11:38:21;;;;;;;45.90;42.90;;;;;;;17.29;100.00;100929.44;1941043;74;31614;-71
2021/10/01 11:44:00;;;;;;;46.17;43.47;;;;;;;17.41;100.00;100919.81;1941018;74;31051;-71
2021/10/01 11:49:29;;;;;;;43.20;40.60;;;;;;;17.26;100.00;100916.07;1940977;74;31246;-71
2021/10/01 11:54:57;;;;;;;36.60;34.27;;;;;;;17.70;100.00;100917.20;1941117;74;31530;-75
2021/10/01 12:00:29;;;;;;;37.23;35.13;;;;;;;17.71;100.00;100913.21;1941104;74;33509;-76
2021/10/01 12:05:55;;;;;;;33.33;31.60;;;;;;;17.58;100.00;100904.98;1941084;74;31022;-76
2021/10/01 12:11:25;;;;;;;36.60;34.40;;;;;;;17.60;100.00;100905.45;1940991;74;31486;-71
2021/10/01 12:16:58;;;;;;;38.40;36.17;;;;;;;17.62;100.00;100900.35;1940862;74;31121;-73
2021/10/01 12:22:28;;;;;;;39.17;36.87;;;;;;;17.65;100.00;100903.89;1940765;74;31118;-76
2021/10/01 12:27:50;;;;;;;35.47;33.27;;;;;;;17.78;100.00;100893.06;1940846;74;31016;-77
2021/10/01 12:33:21;;;;;;;36.13;34.07;;;;;;;17.83;100.00;100888.67;1940855;74;31006;-75
2021/10/01 12:38:49;;;;;;;32.20;30.50;;;;;;;18.01;100.00;100883.85;1941023;74;31628;-71
2021/10/01 12:44:17;;;;;;;35.07;33.27;;;;;;;18.12;100.00;100873.89;1940884;74;31023;-74
2021/10/01 12:49:44;;;;;;;34.67;32.87;;;;;;;18.15;100.00;100890.91;1940973;74;31092;-72
2021/10/01 12:55:12;;;;;;;33.73;32.03;;;;;;;18.36;100.00;100895.80;1941246;74;31094;-73
2021/10/01 13:00:38;;;;;;;34.47;32.63;;;;;;;18.28;100.00;100900.30;1940887;74;31118;-72
2021/10/01 13:06:05;;;;;;;29.80;28.40;;;;;;;17.94;100.00;100906.83;1940938;74;31024;-73
2021/10/01 13:11:34;;;;;;;30.63;29.17;;;;;;;17.54;100.00;100912.38;1940997;74;33505;-72
2021/10/01 13:17:22;;;;;;;33.43;31.63;;;;;;;17.17;100.00;100915.23;1940883;74;31172;-75
2021/10/01 13:22:58;;;;;;;27.73;26.33;;;;;;;17.54;100.00;100911.78;1940984;74;31042;-75
2021/10/01 13:28:25;;;;;;;30.80;29.20;;;;;;;17.64;100.00;100905.05;1941079;74;31547;-69
2021/10/01 13:33:51;;;;;;;29.30;27.70;;;;;;;17.87;100.00;100905.11;1941048;74;33622;-73
2021/10/01 13:39:16;;;;;;;26.53;24.93;;;;;;;17.62;100.00;100911.59;1940863;74;31157;-72
2021/10/01 13:44:40;;;;;;;25.33;23.63;;;;;;;17.59;100.00;100909.42;1940950;74;31053;-72
2021/10/01 13:50:07;;;;;;;23.90;22.60;;;;;;;17.73;100.00;100910.91;1940860;74;31149;-71
2021/10/01 13:55:32;;;;;;;21.27;20.27;;;;;;;17.62;100.00;100912.99;1940989;74;33222;-75
2021/10/01 14:00:57;;;;;;;20.13;19.13;;;;;;;17.48;100.00;100910.88;1940754;74;31049;-73
2021/10/01 14:06:21;;;;;;;18.87;17.77;;;;;;;17.64;100.00;100911.48;1941158;74;31079;-75
2021/10/01 14:11:46;;;;;;;17.70;16.80;;;;;;;17.73;100.00;100917.94;1941263;74;31645;-71
2021/10/01 14:17:11;;;;;;;17.00;16.20;;;;;;;17.71;100.00;100918.03;1940961;74;31113;-74
2021/10/01 14:22:36;;;;;;;15.27;14.47;;;;;;;17.84;100.00;100914.19;1940834;74;31081;-71
2021/10/01 14:28:01;;;;;;;14.27;13.57;;;;;;;17.58;100.00;100928.28;1940835;74;31140;-71
2021/10/01 14:33:27;;;;;;;13.47;12.70;;;;;;;17.35;100.00;100941.34;1940902;74;31057;-71
2021/10/01 14:38:52;;;;;;;14.83;13.43;;;;;;;17.24;100.00;100940.25;1940822;74;31160;-71
2021/10/01 14:44:16;;;;;;;13.23;12.43;;;;;;;17.37;100.00;100937.65;1940800;74;33102;-73
2021/10/01 14:49:41;;;;;;;13.27;12.33;;;;;;;17.72;100.00;100949.98;1941074;74;31654;-71
2021/10/01 14:55:09;;;;;;;14.07;13.27;;;;;;;17.56;100.00;100952.19;1940807;74;31141;-75
2021/10/01 15:00:34;;;;;;;13.17;12.47;;;;;;;17.46;100.00;100958.12;1940765;74;31185;-75
2021/10/01 15:05:58;;;;;;;13.90;13.00;;;;;;;17.28;100.00;100962.30;1940806;74;31039;-75
2021/10/01 15:11:25;;;;;;;13.77;13.10;;;;;;;17.08;100.00;100964.33;1940853;74;31052;-75
2021/10/01 15:16:49;;;;;;;14.63;14.00;;;;;;;17.07;100.00;100964.67;1940932;74;33509;-71
2021/10/01 15:22:14;;;;;;;14.70;13.93;;;;;;;17.35;100.00;100969.43;1941046;74;31543;-70
2021/10/01 15:27:39;;;;;;;14.13;13.43;;;;;;;17.49;100.00;100963.92;1940843;74;31055;-76
2021/10/01 15:33:09;;;;;;;13.17;12.47;;;;;;;17.47;100.00;100969.61;1940872;74;31073;-78
2021/10/01 15:38:34;;;;;;;11.53;10.97;;;;;;;17.20;100.00;100977.75;1940811;74;31121;-71
2021/10/01 15:44:01;;;;;;;13.20;12.50;;;;;;;17.12;100.00;100979.36;1941135;74;33486;-72
2021/10/01 15:49:27;;;;;;;11.70;11.10;;;;;;;17.18;100.00;100988.47;1941055;74;31025;-70
2021/10/01 15:54:52;;;;;;;10.97;10.47;;;;;;;17.21;100.00;100988.64;1940916;74;31132;-72
2021/10/01 16:00:20;;;;;;;12.30;11.73;;;;;;;17.09;100.00;100999.67;1941062;74;31500;-70
2021/10/01 16:05:46;;;;;;;11.10;10.50;;;;;;;17.19;100.00;101012.02;1941108;74;31527;-72
2021/10/01 16:11:11;;;;;;;11.37;10.87;;;;;;;17.09;100.00;101017.91;1940893;74;31146;-74
2021/10/01 16:16:36;;;;;;;11.07;10.47;;;;;;;17.11;100.00;101018.43;1940799;74;31084;-70
2021/10/01 16:22:01;;;;;;;11.50;10.90;;;;;;;16.92;100.00;101017.84;1940957;74;31093;-69
2021/10/01 16:27:26;;;;;;;10.33;9.93;;;;;;;16.94;100.00;101018.94;1941042;74;31128;-73
2021/10/01 16:32:52;;;;;;;11.17;10.50;;;;;;;16.90;100.00;101019.33;1941048;74;31514;-75
2021/10/01 16:38:18;;;;;;;11.00;10.30;;;;;;;16.60;100.00;101032.22;1941070;74;31008;-73
2021/10/01 16:43:43;;;;;;;11.10;10.60;;;;;;;16.42;100.00;101038.26;1940848;74;31113;-72
2021/10/01 16:49:07;;;;;;;12.10;11.60;;;;;;;16.20;100.00;101048.07;1940824;74;31046;-70
2021/10/01 16:54:31;;;;;;;11.90;11.33;;;;;;;16.29;100.00;101044.76;1941038;74;33448;-71
2021/10/01 16:59:56;;;;;;;12.60;12.00;;;;;;;15.86;100.00;101047.21;1941089;74;33564;-71
2021/10/01 17:05:21;;;;;;;11.70;11.20;;;;;;;15.87;100.00;101046.87;1940788;74;33050;-72
2021/10/01 17:10:45;;;;;;;13.97;13.37;;;;;;;15.73;100.00;101047.50;1940824;74;33045;-72
2021/10/01 17:16:29;;;;;;;12.27;11.77;;;;;;;15.51;100.00;101055.01;2010758;71;33412;-73
2021/10/01 17:22:13;;;;;;;13.90;13.30;;;;;;;15.32;100.00;101067.68;2012779;71;32893;-71
2021/10/01 17:27:38;;;;;;;14.57;13.87;;;;;;;15.03;100.00;101063.23;1940803;74;33104;-73
2021/10/01 17:33:04;;;;;;;17.07;16.20;;;;;;;15.00;100.00;101075.62;1940811;74;33523;-74
2021/10/01 17:38:33;;;;;;;18.90;17.90;;;;;;;14.55;100.00;101080.91;1940677;74;33078;-75
2021/10/01 17:44:01;;;;;;;19.53;18.37;;;;;;;14.51;100.00;101086.84;1940683;74;32984;-72
2021/10/01 17:49:25;;;;;;;18.90;17.70;;;;;;;14.65;100.00;101086.89;1940853;74;33671;-72
2021/10/01 17:54:49;;;;;;;17.90;16.90;;;;;;;14.54;100.00;101091.84;1940618;74;33089;-69
2021/10/01 18:00:16;;;;;;;18.10;17.10;;;;;;;14.45;100.00;101096.47;1940908;74;33617;-70
2021/10/01 18:05:42;;;;;;;17.73;16.73;;;;;;;14.21;100.00;101108.83;1940780;74;32994;-69
2021/10/01 18:11:07;;;;;;;19.33;18.27;;;;;;;14.18;100.00;101101.06;1940701;74;33475;-71
2021/10/01 18:16:32;;;;;;;22.30;21.00;;;;;;;14.10;100.00;101101.19;1940879;74;33516;-70
2021/10/01 18:21:57;;;;;;;20.50;19.30;;;;;;;14.00;100.00;101107.75;1940614;74;33100;-70
2021/10/01 18:27:22;;;;;;;22.90;21.20;;;;;;;14.07;100.00;101112.41;1940908;74;33061;-70
2021/10/01 18:32:46;;;;;;;22.23;20.93;;;;;;;13.87;100.00;101120.23;1940688;74;33050;-69
2021/10/01 18:38:14;;;;;;;19.60;18.47;;;;;;;13.97;100.00;101118.70;1940735;74;33047;-73
2021/10/01 18:43:39;;;;;;;20.40;19.30;;;;;;;13.84;100.00;101119.45;1940707;74;33000;-71
2021/10/01 18:49:05;;;;;;;23.47;22.27;;;;;;;13.76;100.00;101125.70;1940765;74;33050;-69
2021/10/01 18:54:30;;;;;;;23.07;21.67;;;;;;;13.66;100.00;101127.50;1940731;74;32983;-70
2021/10/01 18:59:55;;;;;;;22.97;21.57;;;;;;;13.65;100.00;101146.77;1940719;74;32983;-70
2021/10/01 19:05:21;;;;;;;24.13;22.43;;;;;;;13.59;100.00;101156.34;1940866;74;33049;-68
2021/10/01 19:10:45;;;;;;;21.90;20.57;;;;;;;13.64;100.00;101154.90;1940920;74;32984;-69
2021/10/01 19:16:10;;;;;;;23.03;21.63;;;;;;;13.54;100.00;101166.73;1940862;74;33088;-70
2021/10/01 19:21:37;;;;;;;22.73;21.20;;;;;;;13.49;100.00;101171.81;1940700;74;32994;-71
2021/10/01 19:27:16;;;;;;;26.47;24.90;;;;;;;13.27;100.00;101175.68;1940842;74;32992;-68
2021/10/01 19:32:39;;;;;;;27.10;25.10;;;;;;;13.25;100.00;101184.92;1940884;74;33469;-68
2021/10/01 19:38:06;;;;;;;27.77;26.17;;;;;;;13.32;100.00;101192.38;1940873;74;33600;-69
2021/10/01 19:43:30;;;;;;;27.23;25.43;;;;;;;13.22;100.00;101200.87;1940709;74;33052;-70
2021/10/01 19:48:55;;;;;;;30.27;28.20;;;;;;;13.10;100.00;101201.77;1940784;74;32946;-70
2021/10/01 19:54:24;;;;;;;31.37;29.40;;;;;;;13.00;100.00;101212.47;1940746;74;32959;-70
2021/10/01 19:59:49;;;;;;;27.73;25.93;;;;;;;12.94;100.00;101210.84;1940868;74;33446;-69
2021/10/01 20:05:15;;;;;;;30.83;28.87;;;;;;;12.86;100.00;101219.00;1940881;74;33436;-69
2021/10/01 20:10:40;;;;;;;29.77;27.83;;;;;;;12.77;100.00;101221.02;1940908;74;33026;-69
2021/10/01 20:16:05;;;;;;;29.60;27.70;;;;;;;12.72;100.00;101232.20;1940791;74;33054;-70
2021/10/01 20:21:38;;;;;;;34.37;31.93;;;;;;;12.52;100.00;101236.55;1940661;74;33028;-70
2021/10/01 20:50:09;;;;;;;38.60;35.83;;;;;;;12.12;100.00;101231.19;1940895;74;33009;-72
2021/10/01 20:55:33;;;;;;;39.87;37.10;;;;;;;11.92;100.00;101227.13;1940883;74;32990;-70
2021/10/01 21:01:11;;;;;;;41.53;38.83;;;;;;;11.97;100.00;101222.38;1940877;74;33043;-71
2021/10/01 21:35:37;;;;;;;40.67;38.13;;;;;;;11.71;100.00;101228.56;1940951;74;32994;-70
2021/10/01 21:35:52;;;;;;;44.10;41.30;;;;;;;11.50;100.00;101234.47;1940958;74;33126;-72
2021/10/01 21:47:01;;;;;;;45.00;42.20;;;;;;;11.26;100.00;101228.66;1940876;74;33081;-71
2021/10/01 21:52:28;;;;;;;46.20;43.30;;;;;;;11.34;100.00;101238.66;1941100;74;33485;-72
2021/10/01 21:57:52;;;;;;;44.17;41.00;;;;;;;11.28;100.00;101234.80;1940989;74;33048;-69
2021/10/01 22:09:28;;;;;;;44.43;41.43;;;;;;;10.97;100.00;101233.98;1940942;74;33052;-69
2021/10/01 22:15:04;;;;;;;47.37;44.37;;;;;;;11.08;100.00;101232.05;1941195;74;33008;-72
2021/10/01 22:20:29;;;;;;;47.17;44.10;;;;;;;10.60;100.00;101239.81;1940867;74;32992;-69
2021/10/01 22:25:55;;;;;;;47.03;43.83;;;;;;;10.63;100.00;101228.14;1940981;74;33489;-69
2021/10/01 22:31:19;;;;;;;47.20;43.67;;;;;;;10.63;100.00;101226.75;1941098;74;32969;-69
2021/10/01 22:36:44;;;;;;;46.47;43.33;;;;;;;10.83;100.00;101225.37;1941112;74;33554;-71
2021/10/01 22:42:13;;;;;;;46.90;43.77;;;;;;;10.42;100.00;101219.50;1941015;74;33077;-70
2021/10/01 22:47:43;;;;;;;45.70;42.60;;;;;;;10.36;100.00;101221.43;1940878;74;32996;-70
2021/10/01 22:53:09;;;;;;;45.90;42.50;;;;;;;10.35;100.00;101228.67;1941101;74;33474;-70
2021/10/01 22:58:34;;;;;;;44.67;41.47;;;;;;;10.48;100.00;101233.69;1940857;74;33008;-71
2021/10/01 23:04:01;;;;;;;45.97;42.33;;;;;;;10.39;100.00;101229.78;1940865;74;33187;-69
2021/10/01 23:09:28;;;;;;;46.00;42.50;;;;;;;10.10;100.00;101221.05;1940924;74;33005;-71
2021/10/01 23:15:05;;;;;;;43.53;40.37;;;;;;;10.12;100.00;101219.40;1940912;74;33086;-69
2021/10/01 23:43:49;;;;;;;44.70;41.50;;;;;;;9.85;100.00;101194.06;1940887;74;33084;-68
